createdAt,value
2022-10-13T00:01:01.125Z,12.10
2022-10-13T00:03:28.109Z,12.10
2022-10-13T00:05:55.068Z,12.10
2022-10-13T00:08:22.598Z,12.10
2022-10-13T00:10:51.088Z,12.10
2022-10-13T00:13:23.826Z,12.10
2022-10-13T00:15:50.948Z,12.00
2022-10-13T00:18:18.082Z,12.00
2022-10-13T00:20:48.579Z,12.00
2022-10-13T00:23:17.505Z,12.00
2022-10-13T00:25:49.542Z,12.00
2022-10-13T00:28:18.958Z,12.00
2022-10-13T00:30:47.206Z,12.00
2022-10-13T00:33:17.021Z,12.00
2022-10-13T00:35:46.540Z,12.00
2022-10-13T00:38:16.656Z,12.00
2022-10-13T00:40:55.057Z,12.00
2022-10-13T00:43:25.525Z,12.00
2022-10-13T00:45:53.660Z,12.00
2022-10-13T00:48:25.501Z,12.00
2022-10-13T00:50:52.877Z,12.00
2022-10-13T00:53:24.451Z,12.10
2022-10-13T00:55:52.808Z,12.10
2022-10-13T00:58:23.749Z,12.00
2022-10-13T01:00:52.473Z,12.10
2022-10-13T01:03:21.141Z,12.10
2022-10-13T01:05:50.436Z,12.20
2022-10-13T01:08:19.128Z,12.20
2022-10-13T01:11:12.570Z,12.20
2022-10-13T01:14:02.999Z,12.20
2022-10-13T01:16:34.738Z,12.20
2022-10-13T01:19:16.758Z,12.20
2022-10-13T01:21:47.616Z,12.30
2022-10-13T01:24:30.609Z,12.30
2022-10-13T01:27:25.187Z,12.30
2022-10-13T01:30:05.891Z,12.30
2022-10-13T01:32:49.088Z,12.30
2022-10-13T01:35:41.404Z,12.30
2022-10-13T01:38:23.217Z,12.30
2022-10-13T01:41:31.863Z,12.30
2022-10-13T01:44:16.598Z,12.40
2022-10-13T01:46:53.911Z,12.40
2022-10-13T01:49:26.140Z,12.30
2022-10-13T01:51:55.775Z,12.40
2022-10-13T01:54:22.703Z,12.40
2022-10-13T01:56:57.046Z,12.30
2022-10-13T01:59:28.470Z,12.30
2022-10-13T02:02:13.112Z,12.30
2022-10-13T02:04:54.312Z,12.30
2022-10-13T02:07:39.309Z,12.30
2022-10-13T02:10:17.614Z,12.30
2022-10-13T02:12:59.209Z,12.30
2022-10-13T02:15:35.926Z,12.30
2022-10-13T02:18:08.091Z,12.30
2022-10-13T02:20:36.439Z,12.30
2022-10-13T02:23:09.153Z,12.30
2022-10-13T02:25:36.867Z,12.30
2022-10-13T02:28:05.453Z,12.30
2022-10-13T02:30:35.895Z,12.30
2022-10-13T02:33:03.746Z,12.30
2022-10-13T02:35:32.820Z,12.30
2022-10-13T02:38:01.139Z,12.30
2022-10-13T02:40:28.521Z,12.30
2022-10-13T02:42:55.400Z,12.30
2022-10-13T02:45:22.639Z,12.40
2022-10-13T02:47:50.029Z,12.40
2022-10-13T02:50:17.042Z,12.40
2022-10-13T02:52:44.021Z,12.40
2022-10-13T02:55:11.778Z,12.40
2022-10-13T02:57:39.122Z,12.40
2022-10-13T03:00:07.696Z,12.40
2022-10-13T03:02:35.045Z,12.40
2022-10-13T03:05:01.944Z,12.50
2022-10-13T03:07:29.023Z,12.40
2022-10-13T03:09:56.432Z,12.50
2022-10-13T03:12:23.466Z,12.50
2022-10-13T03:14:50.395Z,12.50
2022-10-13T03:17:20.752Z,12.50
2022-10-13T03:19:48.291Z,12.50
2022-10-13T03:22:18.905Z,12.50
2022-10-13T03:24:46.176Z,12.50
2022-10-13T03:27:13.107Z,12.50
2022-10-13T03:29:40.870Z,12.50
2022-10-13T03:32:07.797Z,12.50
2022-10-13T03:34:34.915Z,12.50
2022-10-13T03:37:07.710Z,12.50
2022-10-13T03:39:42.325Z,12.50
2022-10-13T03:42:10.793Z,12.50
2022-10-13T03:44:39.276Z,12.40
2022-10-13T03:47:06.407Z,12.40
2022-10-13T03:49:33.339Z,12.30
2022-10-13T03:52:00.420Z,12.30
2022-10-13T03:54:27.494Z,12.30
2022-10-13T03:56:54.351Z,12.20
2022-10-13T03:59:21.219Z,12.20
2022-10-13T04:01:48.228Z,12.20
2022-10-13T04:04:15.584Z,12.20
2022-10-13T04:06:46.112Z,12.20
2022-10-13T04:09:15.736Z,12.20
2022-10-13T04:11:42.973Z,12.20
2022-10-13T04:14:10.227Z,12.20
2022-10-13T04:16:39.668Z,12.20
2022-10-13T04:19:06.877Z,12.20
2022-10-13T04:21:35.267Z,12.20
2022-10-13T04:24:02.857Z,12.20
2022-10-13T04:26:33.152Z,12.20
2022-10-13T04:29:08.764Z,12.20
2022-10-13T04:31:38.490Z,12.10
2022-10-13T04:34:05.630Z,12.20
2022-10-13T04:36:32.689Z,12.20
2022-10-13T04:38:59.631Z,12.20
2022-10-13T04:41:26.577Z,12.20
2022-10-13T04:43:54.252Z,12.20
2022-10-13T04:46:25.654Z,12.20
2022-10-13T04:48:55.656Z,12.20
2022-10-13T04:51:29.072Z,12.30
2022-10-13T04:53:58.057Z,12.30
2022-10-13T04:56:25.625Z,12.30
2022-10-13T04:58:52.972Z,12.20
2022-10-13T05:01:22.619Z,12.20
2022-10-13T05:03:54.594Z,12.30
2022-10-13T05:06:25.399Z,12.30
2022-10-13T05:08:56.119Z,12.30
2022-10-13T05:11:24.337Z,12.30
2022-10-13T05:13:51.317Z,12.30
2022-10-13T05:16:21.053Z,12.30
2022-10-13T05:18:52.507Z,12.30
2022-10-13T05:21:22.386Z,12.30
2022-10-13T05:23:49.342Z,12.30
2022-10-13T05:26:18.242Z,12.30
2022-10-13T05:28:46.909Z,12.30
2022-10-13T05:31:19.516Z,12.20
2022-10-13T05:33:47.331Z,12.30
2022-10-13T05:36:34.395Z,12.20
2022-10-13T05:39:09.926Z,12.20
2022-10-13T05:41:37.086Z,12.20
2022-10-13T05:44:09.295Z,12.20
2022-10-13T05:46:42.287Z,12.20
2022-10-13T05:49:09.504Z,12.10
2022-10-13T05:51:50.720Z,12.10
2022-10-13T05:54:47.228Z,12.10
2022-10-13T05:57:18.914Z,12.10
2022-10-13T05:59:52.554Z,12.10
2022-10-13T06:02:24.851Z,12.10
2022-10-13T06:04:55.649Z,12.10
2022-10-13T06:07:22.553Z,12.10
2022-10-13T06:09:49.883Z,12.10
2022-10-13T06:12:17.063Z,12.10
2022-10-13T06:14:44.168Z,12.10
2022-10-13T06:17:11.821Z,12.10
2022-10-13T06:19:43.164Z,12.10
2022-10-13T06:22:10.088Z,12.10
2022-10-13T06:24:37.087Z,12.10
2022-10-13T06:27:08.250Z,12.10
2022-10-13T06:29:39.498Z,12.10
2022-10-13T06:32:06.653Z,12.10
2022-10-13T06:34:33.662Z,12.10
2022-10-13T06:37:00.626Z,12.20
2022-10-13T06:39:27.692Z,12.20
2022-10-13T06:41:55.389Z,12.20
2022-10-13T06:44:31.724Z,12.20
2022-10-13T06:47:03.412Z,12.20
2022-10-13T06:49:30.317Z,12.20
2022-10-13T06:51:57.468Z,12.20
2022-10-13T06:54:24.475Z,12.30
2022-10-13T06:56:51.933Z,12.30
2022-10-13T06:59:19.167Z,12.30
2022-10-13T07:01:46.997Z,12.30
2022-10-13T07:04:16.010Z,12.30
2022-10-13T07:06:42.997Z,12.30
2022-10-13T07:09:10.406Z,12.30
2022-10-13T07:11:37.377Z,12.30
2022-10-13T07:14:04.635Z,12.30
2022-10-13T07:16:32.009Z,12.30
2022-10-13T07:18:58.990Z,12.30
2022-10-13T07:21:26.410Z,12.40
2022-10-13T07:23:53.552Z,12.40
2022-10-13T07:26:20.779Z,12.40
2022-10-13T07:28:47.852Z,12.40
2022-10-13T07:31:17.936Z,12.40
2022-10-13T07:33:47.260Z,12.40
2022-10-13T07:36:16.934Z,12.40
2022-10-13T07:38:44.039Z,12.40
2022-10-13T07:41:12.466Z,12.50
2022-10-13T07:43:40.162Z,12.50
2022-10-13T07:46:07.917Z,12.50
2022-10-13T07:48:35.671Z,12.50
2022-10-13T07:51:07.662Z,12.50
2022-10-13T07:53:35.571Z,12.50
2022-10-13T07:56:04.671Z,12.60
2022-10-13T07:58:32.225Z,12.60
2022-10-13T08:01:01.124Z,12.60
2022-10-13T08:03:28.994Z,12.60
2022-10-13T08:05:59.318Z,12.60
2022-10-13T08:08:26.779Z,12.60
2022-10-13T08:10:55.010Z,12.70
2022-10-13T08:13:23.731Z,12.70
2022-10-13T08:15:51.256Z,12.70
2022-10-13T08:18:18.331Z,12.70
2022-10-13T08:20:48.528Z,12.70
2022-10-13T08:23:18.059Z,12.80
2022-10-13T08:25:50.957Z,12.80
2022-10-13T08:28:21.168Z,12.80
2022-10-13T08:30:48.994Z,12.80
2022-10-13T08:33:16.490Z,12.90
2022-10-13T08:35:43.565Z,12.90
2022-10-13T08:38:11.161Z,12.90
2022-10-13T08:40:39.658Z,12.90
2022-10-13T08:43:15.009Z,13.00
2022-10-13T08:45:42.600Z,12.90
2022-10-13T08:48:13.326Z,13.00
2022-10-13T08:50:44.916Z,13.00
2022-10-13T08:53:28.341Z,13.00
2022-10-13T08:56:19.720Z,13.10
2022-10-13T08:58:48.928Z,13.10
2022-10-13T09:01:25.759Z,13.20
2022-10-13T09:04:30.104Z,13.20
2022-10-13T09:07:05.250Z,13.30
2022-10-13T09:09:32.739Z,13.30
2022-10-13T09:12:00.046Z,13.40
2022-10-13T09:14:31.404Z,13.40
2022-10-13T09:17:17.954Z,13.40
2022-10-13T09:19:46.335Z,13.50
2022-10-13T09:22:36.165Z,13.50
2022-10-13T09:25:22.506Z,13.50
2022-10-13T09:28:16.119Z,13.50
2022-10-13T09:30:47.127Z,13.60
2022-10-13T09:33:20.366Z,13.60
2022-10-13T09:35:58.945Z,13.50
2022-10-13T09:38:26.937Z,13.50
2022-10-13T09:41:15.283Z,13.50
2022-10-13T09:43:48.144Z,13.60
2022-10-13T09:46:29.516Z,13.50
2022-10-13T09:49:04.137Z,13.50
2022-10-13T09:51:38.965Z,13.50
2022-10-13T09:54:36.559Z,13.40
2022-10-13T09:57:11.994Z,13.40
2022-10-13T09:59:48.250Z,13.30
2022-10-13T10:02:32.419Z,13.30
2022-10-13T10:05:15.826Z,13.30
2022-10-13T10:07:43.197Z,13.30
2022-10-13T10:10:25.545Z,13.30
2022-10-13T10:12:52.587Z,13.20
2022-10-13T10:15:28.542Z,13.30
2022-10-13T10:18:16.275Z,13.20
2022-10-13T10:21:08.067Z,13.20
2022-10-13T10:23:59.781Z,13.10
2022-10-13T10:26:41.928Z,13.10
2022-10-13T10:29:22.306Z,13.10
2022-10-13T10:32:25.411Z,13.30
2022-10-13T10:35:07.356Z,13.40
2022-10-13T10:37:51.614Z,13.50
2022-10-13T10:40:25.278Z,13.60
2022-10-13T10:43:03.756Z,13.90
2022-10-13T10:45:37.810Z,13.80
2022-10-13T10:48:13.264Z,13.90
2022-10-13T10:50:40.883Z,13.90
2022-10-13T10:53:51.895Z,14.10
2022-10-13T10:56:39.651Z,14.10
2022-10-13T10:59:22.900Z,14.20
2022-10-13T11:02:04.965Z,14.20
2022-10-13T11:04:45.011Z,14.20
2022-10-13T11:07:31.849Z,14.20
2022-10-13T11:10:17.163Z,14.20
2022-10-13T11:12:53.511Z,14.20
2022-10-13T11:15:23.660Z,14.20
2022-10-13T11:17:50.899Z,14.20
2022-10-13T11:20:20.610Z,14.10
2022-10-13T11:22:59.853Z,14.10
2022-10-13T11:25:40.102Z,14.10
2022-10-13T11:28:22.726Z,14.20
2022-10-13T11:30:55.369Z,14.30
2022-10-13T11:33:36.071Z,14.30
2022-10-13T11:36:41.667Z,14.20
2022-10-13T11:39:50.836Z,14.20
2022-10-13T11:42:36.393Z,14.20
2022-10-13T11:45:26.816Z,14.30
2022-10-13T11:48:03.411Z,14.20
2022-10-13T11:51:10.312Z,14.40
2022-10-13T11:54:07.948Z,14.40
2022-10-13T11:56:59.557Z,14.40
2022-10-13T11:59:31.357Z,14.30
2022-10-13T12:02:06.793Z,14.30
2022-10-13T12:04:33.741Z,14.30
2022-10-13T12:07:04.370Z,14.40
2022-10-13T12:09:32.569Z,14.50
2022-10-13T12:12:19.894Z,14.50
2022-10-13T12:14:51.759Z,14.40
2022-10-13T12:17:31.732Z,14.50
2022-10-13T12:20:01.146Z,14.50
2022-10-13T12:22:29.240Z,14.60
2022-10-13T12:25:05.291Z,14.60
2022-10-13T12:27:42.282Z,14.60
2022-10-13T12:30:25.180Z,14.60
2022-10-13T12:32:54.504Z,14.50
2022-10-13T12:35:25.787Z,14.50
2022-10-13T12:37:56.865Z,14.50
2022-10-13T12:40:28.120Z,14.50
2022-10-13T12:42:55.923Z,14.60
2022-10-13T12:45:28.152Z,14.60
2022-10-13T12:47:55.767Z,14.60
2022-10-13T12:50:25.390Z,14.60
2022-10-13T12:53:04.293Z,14.70
2022-10-13T12:55:31.993Z,14.80
2022-10-13T12:57:59.228Z,14.80
2022-10-13T13:00:29.184Z,14.80
2022-10-13T13:03:17.552Z,14.70
2022-10-13T13:05:50.857Z,14.70
2022-10-13T13:08:29.451Z,14.80
2022-10-13T13:10:58.681Z,14.90
2022-10-13T13:13:54.625Z,15.00
2022-10-13T13:16:23.459Z,15.10
2022-10-13T13:18:51.697Z,15.20
2022-10-13T13:21:20.254Z,15.30
2022-10-13T13:23:52.884Z,15.20
2022-10-13T13:26:24.332Z,15.20
2022-10-13T13:28:54.889Z,15.20
2022-10-13T13:31:27.026Z,15.20
2022-10-13T13:33:54.088Z,15.20
2022-10-13T13:36:24.239Z,15.10
2022-10-13T13:38:54.731Z,15.10
2022-10-13T13:41:22.330Z,15.00
2022-10-13T13:43:50.484Z,15.10
2022-10-13T13:46:22.041Z,15.10
2022-10-13T13:48:49.392Z,15.10
2022-10-13T13:51:17.809Z,15.10
2022-10-13T13:53:46.024Z,15.00
2022-10-13T13:56:18.023Z,14.90
2022-10-13T13:58:46.014Z,14.90
2022-10-13T14:01:15.926Z,14.80
2022-10-13T14:03:43.473Z,14.80
2022-10-13T14:06:20.063Z,14.80
2022-10-13T14:08:53.929Z,14.70
2022-10-13T14:11:21.095Z,14.70
2022-10-13T14:13:48.203Z,14.70
2022-10-13T14:16:24.557Z,14.70
2022-10-13T14:18:52.792Z,14.60
2022-10-13T14:21:24.625Z,14.60
2022-10-13T14:23:56.704Z,14.60
2022-10-13T14:26:25.070Z,14.60
2022-10-13T14:28:52.527Z,14.50
2022-10-13T14:31:19.750Z,14.50
2022-10-13T14:33:50.786Z,14.50
2022-10-13T14:36:20.685Z,14.50
2022-10-13T14:38:48.027Z,14.50
2022-10-13T14:41:17.641Z,14.50
2022-10-13T14:43:46.117Z,14.60
2022-10-13T14:46:13.946Z,14.60
2022-10-13T14:48:43.651Z,14.50
2022-10-13T14:51:12.105Z,14.50
2022-10-13T14:53:41.431Z,14.50
2022-10-13T14:56:25.561Z,14.50
2022-10-13T14:58:58.843Z,14.40
2022-10-13T15:01:33.516Z,14.50
2022-10-13T15:04:01.892Z,14.50
2022-10-13T15:06:31.798Z,14.50
2022-10-13T15:08:59.238Z,14.50
2022-10-13T15:11:27.099Z,14.50
2022-10-13T15:13:54.070Z,14.50
2022-10-13T15:16:23.942Z,14.40
2022-10-13T15:18:51.813Z,14.50
2022-10-13T15:21:19.086Z,14.50
2022-10-13T15:23:47.173Z,14.60
2022-10-13T15:26:20.547Z,14.60
2022-10-13T15:28:56.334Z,14.50
2022-10-13T15:31:24.614Z,14.50
2022-10-13T15:33:53.692Z,14.50
2022-10-13T15:36:22.964Z,14.50
2022-10-13T15:38:51.245Z,14.50
2022-10-13T15:41:18.864Z,14.50
2022-10-13T15:43:45.952Z,14.50
2022-10-13T15:46:21.252Z,14.50
2022-10-13T15:48:49.788Z,14.50
2022-10-13T15:51:19.722Z,14.50
2022-10-13T15:53:48.494Z,14.50
2022-10-13T15:56:17.391Z,14.50
2022-10-13T15:58:45.625Z,14.50
2022-10-13T16:01:15.417Z,14.50
2022-10-13T16:03:42.589Z,14.50
2022-10-13T16:06:12.385Z,14.40
2022-10-13T16:08:41.295Z,14.40
2022-10-13T16:11:13.008Z,14.40
2022-10-13T16:13:40.773Z,14.30
2022-10-13T16:16:09.009Z,14.30
2022-10-13T16:18:38.181Z,14.30
2022-10-13T16:21:22.930Z,14.30
2022-10-13T16:23:49.928Z,14.30
2022-10-13T16:26:17.831Z,14.30
2022-10-13T16:28:45.910Z,14.20
2022-10-13T16:31:16.309Z,14.20
2022-10-13T16:33:45.126Z,14.20
2022-10-13T16:36:17.813Z,14.20
2022-10-13T16:38:46.885Z,14.20
2022-10-13T16:41:16.955Z,14.10
2022-10-13T16:43:46.139Z,14.10
2022-10-13T16:46:15.093Z,14.10
2022-10-13T16:48:43.236Z,14.10
2022-10-13T16:51:18.153Z,14.10
2022-10-13T16:53:53.699Z,14.10
2022-10-13T16:56:24.408Z,14.10
2022-10-13T16:59:00.951Z,14.10
2022-10-13T17:01:28.816Z,14.00
2022-10-13T17:03:56.476Z,14.00
2022-10-13T17:06:25.783Z,14.00
2022-10-13T17:09:00.241Z,14.00
2022-10-13T17:11:30.209Z,14.00
2022-10-13T17:13:58.491Z,14.00
2022-10-13T17:16:27.895Z,13.90
2022-10-13T17:18:55.672Z,13.90
2022-10-13T17:21:28.493Z,13.90
2022-10-13T17:23:56.888Z,13.90
2022-10-13T17:26:24.970Z,13.90
2022-10-13T17:28:52.078Z,13.90
2022-10-13T17:31:22.011Z,13.90
2022-10-13T17:33:50.118Z,13.90
2022-10-13T17:36:26.263Z,13.80
2022-10-13T17:38:55.805Z,13.80
2022-10-13T17:41:24.553Z,13.80
2022-10-13T17:43:52.415Z,13.70
2022-10-13T17:46:38.688Z,13.70
2022-10-13T17:49:07.969Z,13.70
2022-10-13T17:51:35.372Z,13.70
2022-10-13T17:54:06.058Z,13.70
2022-10-13T17:56:34.010Z,13.70
2022-10-13T17:59:02.457Z,13.70
2022-10-13T18:01:35.036Z,13.70
2022-10-13T18:04:08.543Z,13.60
2022-10-13T18:06:40.597Z,13.60
2022-10-13T18:09:08.796Z,13.60
2022-10-13T18:11:36.531Z,13.60
2022-10-13T18:14:03.937Z,13.60
2022-10-13T18:16:30.975Z,13.60
2022-10-13T18:18:58.331Z,13.60
2022-10-13T18:21:28.508Z,13.60
2022-10-13T18:23:57.895Z,13.60
2022-10-13T18:26:25.952Z,13.50
2022-10-13T18:28:53.462Z,13.60
2022-10-13T18:31:29.585Z,13.50
2022-10-13T18:34:02.597Z,13.50
2022-10-13T18:36:35.840Z,13.50
2022-10-13T18:39:21.164Z,13.50
2022-10-13T18:41:49.698Z,13.50
2022-10-13T18:44:17.028Z,13.50
2022-10-13T18:46:44.245Z,13.50
2022-10-13T18:49:16.045Z,13.40
2022-10-13T18:51:43.541Z,13.40
2022-10-13T18:54:11.098Z,13.40
2022-10-13T18:56:38.648Z,13.40
2022-10-13T18:59:07.070Z,13.40
2022-10-13T19:01:35.952Z,13.40
2022-10-13T19:04:03.810Z,13.30
2022-10-13T19:06:32.472Z,13.30
2022-10-13T19:09:08.119Z,13.30
2022-10-13T19:11:36.935Z,13.30
2022-10-13T19:14:10.940Z,13.30
2022-10-13T19:16:40.915Z,13.30
2022-10-13T19:19:09.220Z,13.30
2022-10-13T19:21:38.222Z,13.30
2022-10-13T19:24:06.516Z,13.20
2022-10-13T19:26:38.748Z,13.20
2022-10-13T19:29:09.195Z,13.10
2022-10-13T19:31:37.541Z,13.10
2022-10-13T19:34:08.104Z,13.10
2022-10-13T19:36:46.772Z,13.10
2022-10-13T19:39:16.571Z,13.00
2022-10-13T19:41:45.503Z,13.00
2022-10-13T19:44:13.987Z,13.00
2022-10-13T19:46:42.747Z,13.00
2022-10-13T19:49:11.172Z,12.90
2022-10-13T19:51:45.364Z,12.90
2022-10-13T19:54:13.391Z,12.90
2022-10-13T19:56:47.731Z,12.90
2022-10-13T19:59:17.816Z,12.90
2022-10-13T20:01:45.846Z,12.90
2022-10-13T20:04:14.542Z,12.90
2022-10-13T20:06:43.628Z,12.90
2022-10-13T20:09:11.085Z,12.90
2022-10-13T20:11:40.598Z,12.90
2022-10-13T20:14:08.153Z,12.90
2022-10-13T20:16:36.713Z,12.90
2022-10-13T20:19:05.047Z,12.80
2022-10-13T20:21:36.033Z,12.90
2022-10-13T20:24:03.545Z,12.90
2022-10-13T20:26:34.104Z,12.90
2022-10-13T20:29:01.492Z,12.90
2022-10-13T20:31:28.550Z,12.90
2022-10-13T20:33:57.935Z,12.90
2022-10-13T20:36:34.705Z,12.90
2022-10-13T20:39:06.918Z,12.90
2022-10-13T20:41:34.920Z,12.90
2022-10-13T20:44:02.491Z,12.80
2022-10-13T20:46:32.760Z,12.90
2022-10-13T20:49:15.057Z,12.90
2022-10-13T20:51:43.260Z,12.90
2022-10-13T20:54:12.628Z,12.80
2022-10-13T20:56:41.536Z,12.80
2022-10-13T20:59:11.804Z,12.80
2022-10-13T21:01:41.445Z,12.80
2022-10-13T21:04:10.519Z,12.80
2022-10-13T21:06:38.135Z,12.80
2022-10-13T21:09:06.850Z,12.90
2022-10-13T21:11:36.964Z,12.90
2022-10-13T21:14:07.016Z,12.80
2022-10-13T21:16:34.940Z,12.80
2022-10-13T21:19:05.963Z,12.80
2022-10-13T21:21:34.463Z,12.90
2022-10-13T21:24:06.209Z,12.80
2022-10-13T21:26:35.105Z,12.80
2022-10-13T21:29:02.822Z,12.80
2022-10-13T21:31:30.961Z,12.80
2022-10-13T21:34:00.337Z,12.90
2022-10-13T21:36:30.064Z,12.80
2022-10-13T21:39:00.760Z,12.90
2022-10-13T21:41:28.523Z,12.80
2022-10-13T21:43:55.844Z,12.90
2022-10-13T21:46:28.606Z,12.80
2022-10-13T21:48:57.857Z,12.90
2022-10-13T21:51:33.259Z,12.80
2022-10-13T21:54:04.939Z,12.90
2022-10-13T21:56:33.037Z,12.90
2022-10-13T21:59:00.721Z,12.90
2022-10-13T22:01:28.458Z,13.00
2022-10-13T22:04:00.780Z,13.00
2022-10-13T22:06:29.460Z,13.00
2022-10-13T22:08:58.960Z,13.00
2022-10-13T22:11:29.059Z,13.00
2022-10-13T22:13:57.460Z,13.00
2022-10-13T22:16:33.939Z,13.00
2022-10-13T22:19:01.224Z,13.00
2022-10-13T22:21:31.950Z,13.10
2022-10-13T22:24:05.101Z,13.00
2022-10-13T22:26:34.485Z,13.10
2022-10-13T22:29:03.624Z,13.10
2022-10-13T22:31:32.927Z,13.10
2022-10-13T22:34:05.126Z,13.10
2022-10-13T22:36:32.485Z,13.10
2022-10-13T22:39:02.771Z,13.10
2022-10-13T22:41:31.520Z,13.10
2022-10-13T22:44:00.434Z,13.10
2022-10-13T22:46:30.795Z,13.10
2022-10-13T22:48:58.286Z,13.20
2022-10-13T22:51:27.403Z,13.10
2022-10-13T22:53:54.758Z,13.10
2022-10-13T22:56:23.946Z,13.10
2022-10-13T22:58:56.836Z,13.20
2022-10-13T23:01:25.026Z,13.20
2022-10-13T23:03:54.339Z,13.20
2022-10-13T23:06:24.344Z,13.20
2022-10-13T23:08:51.600Z,13.10
2022-10-13T23:11:19.367Z,13.20
2022-10-13T23:13:47.246Z,13.20
2022-10-13T23:16:17.541Z,13.10
2022-10-13T23:18:44.540Z,13.10
2022-10-13T23:21:30.374Z,13.10
2022-10-13T23:24:02.807Z,13.20
2022-10-13T23:26:30.883Z,13.20
2022-10-13T23:28:58.495Z,13.20
2022-10-13T23:31:26.835Z,13.20
2022-10-13T23:33:54.247Z,13.20
2022-10-13T23:36:25.138Z,13.20
2022-10-13T23:39:07.526Z,13.20
2022-10-13T23:41:34.914Z,13.20
2022-10-13T23:44:02.228Z,13.30
2022-10-13T23:46:29.202Z,13.20
2022-10-13T23:48:56.786Z,13.30
2022-10-13T23:51:25.653Z,13.20
2022-10-13T23:53:53.304Z,13.30
2022-10-13T23:56:20.602Z,13.30
2022-10-13T23:58:48.231Z,13.30
